Mt Bachelor previous 24hr weather report
        updated 7/22/2014 6:08
Year Month Date Time Base Pmx Smt Pmx Smt Pmx Pmx Pmx Smt Smt Smt Srx Srx Srx
Temp Temp Temp RH RH wind wind wind wind wind wind wind wind wind
6300' 7800' 9000' 7800' 9000' avg max dir avg max dir avg max dir
1 2014 7 22 7/22/2014 600 52.9 47.2 41.7 89 98 16 39 193 36 42 269
2 2014 7 22 7/22/2014 500 53.2 47.9 42.5 82 95 10 25 196 23 35 263
3 2014 7 22 7/22/2014 400 51.6 49.3 41.9 79 94 14 28 201 25 34 273
4 2014 7 22 7/22/2014 300 51.6 48.9 43 79 89 11 25 194 23 26 272
5 2014 7 22 7/22/2014 200 51.9 49.7 43.6 77 86 14 25 171 20 22 270
6 2014 7 22 7/22/2014 100 52.4 48.9 43.4 77 85 9 17 210 24 29 271
7 2014 7 21 7/21/2014 2400 56.3 49.7 46.6 74 76 10 16 212 14 24 282
8 2014 7 21 7/21/2014 2300 56.3 50.2 50.5 72 64 10 18 211 12 19 300
9 2014 7 21 7/21/2014 2200 55.3 50.4 51 71 62 7 12 206 14 29 270
10 2014 7 21 7/21/2014 2100 55.5 50.8 51.6 68 59 8 14 221 28 40 292
11 2014 7 21 7/21/2014 2000 57.8 52.1 53.1 66 57 10 15 210 21 35 293
12 2014 7 21 7/21/2014 1900 59.9 53.8 54.5 63 54 10 17 224 15 29 299
13 2014 7 21 7/21/2014 1800 -111 57 55.8 58 50 7 13 220 13 20 314
14 2014 7 21 7/21/2014 1700 -111 57.5 53.4 50 52 10 16 214 10 17 299
15 2014 7 21 7/21/2014 1600 -111 57.4 54 50 50 6 13 207 13 23 323
16 2014 7 21 7/21/2014 1500 -112 57.9 53.5 46 47 8 16 201 13 24 311
17 2014 7 21 7/21/2014 1400 -112 57.7 52.7 44 49 10 25 214 7 13 314
18 2014 7 21 7/21/2014 1300 -112 56.6 52.4 44 51 5 11 210 10 15 319
19 2014 7 21 7/21/2014 1200 -112 55.3 51.2 47 54 7 11 213 10 15 320
20 2014 7 21 7/21/2014 1100 -112 54.6 50.2 43 50 7 11 224 12 16 319
21 2014 7 21 7/21/2014 1000 1.3 53.3 47.4 47 55 7 13 225 18 20 315
22 2014 7 21 7/21/2014 900 57.6 50.7 46.2 46 55 9 13 230 20 22 330
23 2014 7 21 7/21/2014 800 57.2 50.3 43.8 31 50 9 12 233 25 28 333
24 2014 7 21 7/21/2014 700 49.5 48.1 43.6 20 36 12 16 233 28 29 333
1 2014 7 21 7/21/2014 600 47 46.5 43.5 17 25 10 17 234 33 35 336